createdAt,value
2023-03-21T00:00:21.658Z,247
2023-03-21T00:00:51.760Z,247
2023-03-21T00:01:24.710Z,271
2023-03-21T00:01:55.980Z,271
2023-03-21T00:02:28.825Z,265
2023-03-21T00:02:59.897Z,259
2023-03-21T00:03:32.686Z,261
2023-03-21T00:04:03.959Z,259
2023-03-21T00:04:50.523Z,259
2023-03-21T00:05:15.444Z,265
2023-03-21T00:05:41.064Z,265
2023-03-21T00:06:11.901Z,274
2023-03-21T00:06:45.534Z,274
2023-03-21T00:07:15.738Z,261
2023-03-21T00:07:48.812Z,251
2023-03-21T00:08:19.768Z,269
2023-03-21T00:08:52.593Z,258
2023-03-21T00:09:23.809Z,258
2023-03-21T00:10:04.801Z,273
2023-03-21T00:10:39.565Z,273
2023-03-21T00:11:08.316Z,266
2023-03-21T00:11:31.949Z,266
2023-03-21T00:12:03.695Z,266
2023-03-21T00:12:36.956Z,266
2023-03-21T00:13:07.866Z,266
2023-03-21T00:13:40.756Z,266
2023-03-21T00:14:11.751Z,266
2023-03-21T00:14:44.618Z,266
2023-03-21T00:15:17.815Z,261
2023-03-21T00:16:01.880Z,266
2023-03-21T00:16:21.844Z,266
2023-03-21T00:16:53.362Z,267
2023-03-21T00:17:23.739Z,267
2023-03-21T00:17:56.783Z,249
2023-03-21T00:18:27.935Z,272
2023-03-21T00:19:00.592Z,266
2023-03-21T00:19:31.848Z,257
2023-03-21T00:20:04.823Z,266
2023-03-21T00:20:36.048Z,266
2023-03-21T00:21:38.337Z,266
2023-03-21T00:21:52.280Z,266
2023-03-21T00:22:12.693Z,266
2023-03-21T00:22:43.740Z,266
2023-03-21T00:23:16.661Z,264
2023-03-21T00:23:47.932Z,265
2023-03-21T00:24:20.734Z,265
2023-03-21T00:24:51.840Z,265
2023-03-21T00:25:25.948Z,265
2023-03-21T00:25:55.973Z,265
2023-03-21T00:26:28.481Z,265
2023-03-21T00:27:12.512Z,265
2023-03-21T00:27:50.382Z,265
2023-03-21T00:28:08.386Z,265
2023-03-21T00:28:36.745Z,265
2023-03-21T00:29:07.886Z,268
2023-03-21T00:29:40.697Z,268
2023-03-21T00:30:12.657Z,268
2023-03-21T00:30:44.776Z,261
2023-03-21T00:31:15.847Z,261
2023-03-21T00:31:48.587Z,259
2023-03-21T00:32:19.822Z,258
2023-03-21T00:32:56.053Z,259
2023-03-21T00:33:24.002Z,239
2023-03-21T00:33:56.731Z,267
2023-03-21T00:34:36.902Z,255
2023-03-21T00:35:31.594Z,255
2023-03-21T00:36:05.699Z,251
2023-03-21T00:36:12.373Z,274
2023-03-21T00:36:36.072Z,259
2023-03-21T00:37:08.898Z,251
2023-03-21T00:37:39.870Z,251
2023-03-21T00:38:12.750Z,251
2023-03-21T00:38:43.952Z,255
2023-03-21T00:39:16.643Z,265
2023-03-21T00:39:48.010Z,265
2023-03-21T00:40:27.962Z,265
2023-03-21T00:40:52.131Z,265
2023-03-21T00:41:41.009Z,265
2023-03-21T00:41:56.061Z,265
2023-03-21T00:42:29.137Z,265
2023-03-21T00:42:59.823Z,265
2023-03-21T00:43:32.523Z,265
2023-03-21T00:44:03.935Z,265
2023-03-21T00:44:36.926Z,268
2023-03-21T00:45:08.902Z,265
2023-03-21T00:45:40.965Z,265
2023-03-21T00:46:11.873Z,268
2023-03-21T00:46:54.453Z,268
2023-03-21T00:47:15.994Z,279
2023-03-21T00:47:48.790Z,253
2023-03-21T00:48:19.768Z,277
2023-03-21T00:48:52.621Z,271
2023-03-21T00:49:23.901Z,271
2023-03-21T00:49:56.670Z,271
2023-03-21T00:50:28.119Z,271
2023-03-21T00:51:00.646Z,271
2023-03-21T00:51:31.955Z,263
2023-03-21T00:52:15.797Z,277
2023-03-21T00:52:40.799Z,268
2023-03-21T00:53:08.693Z,268
2023-03-21T00:53:39.739Z,268
2023-03-21T00:54:12.540Z,268
2023-03-21T00:54:43.902Z,268
2023-03-21T00:55:17.003Z,268
2023-03-21T00:55:48.005Z,273
2023-03-21T00:56:20.670Z,271
2023-03-21T00:56:51.932Z,272
2023-03-21T00:57:37.950Z,272
2023-03-21T00:58:01.601Z,272
2023-03-21T00:58:28.597Z,272
2023-03-21T00:59:00.000Z,272
2023-03-21T00:59:32.560Z,262
2023-03-21T01:00:05.293Z,270
2023-03-21T01:00:36.863Z,268
2023-03-21T01:01:08.907Z,268
2023-03-21T01:01:40.704Z,268
2023-03-21T01:02:11.956Z,268
2023-03-21T01:02:45.199Z,269
2023-03-21T01:03:24.581Z,268
2023-03-21T01:03:48.614Z,268
2023-03-21T01:04:19.904Z,268
2023-03-21T01:04:52.561Z,269
2023-03-21T01:05:24.174Z,269
2023-03-21T01:05:56.726Z,269
2023-03-21T01:06:27.617Z,269
2023-03-21T01:07:00.755Z,268
2023-03-21T01:07:31.930Z,268
2023-03-21T01:08:20.660Z,268
2023-03-21T01:08:50.412Z,268
2023-03-21T01:09:08.912Z,269
2023-03-21T01:09:39.884Z,269
2023-03-21T01:10:12.844Z,269
2023-03-21T01:10:43.844Z,269
2023-03-21T01:11:16.598Z,266
2023-03-21T01:11:47.841Z,266
2023-03-21T01:12:20.607Z,266
2023-03-21T01:12:51.947Z,266
2023-03-21T01:13:24.624Z,266
2023-03-21T01:14:07.313Z,266
2023-03-21T01:14:28.620Z,266
2023-03-21T01:14:59.815Z,266
2023-03-21T01:15:34.092Z,266
2023-03-21T01:16:03.828Z,266
2023-03-21T01:16:36.707Z,266
2023-03-21T01:17:07.907Z,266
2023-03-21T01:17:40.494Z,266
2023-03-21T01:18:11.802Z,266
2023-03-21T01:18:44.545Z,266
2023-03-21T01:19:25.107Z,258
2023-03-21T01:19:51.547Z,257
2023-03-21T01:20:20.114Z,257
2023-03-21T01:20:53.674Z,257
2023-03-21T01:21:23.741Z,257
2023-03-21T01:21:56.754Z,257
2023-03-21T01:22:27.881Z,257
2023-03-21T01:23:00.868Z,261
2023-03-21T01:23:31.941Z,261
2023-03-21T01:24:04.811Z,261
2023-03-21T01:24:40.507Z,261
2023-03-21T01:25:21.530Z,261
2023-03-21T01:25:40.338Z,261
2023-03-21T01:26:12.757Z,261
2023-03-21T01:26:43.821Z,261
2023-03-21T01:27:16.781Z,261
2023-03-21T01:27:48.100Z,261
2023-03-21T01:28:20.741Z,261
2023-03-21T01:28:52.013Z,261
2023-03-21T01:29:24.682Z,261
2023-03-21T01:29:56.089Z,261
2023-03-21T01:30:34.000Z,261
2023-03-21T01:31:00.086Z,261
2023-03-21T01:31:32.676Z,261
2023-03-21T01:32:03.977Z,267
2023-03-21T01:32:37.060Z,267
2023-03-21T01:33:08.892Z,267
2023-03-21T01:33:40.653Z,267
2023-03-21T01:34:11.999Z,267
2023-03-21T01:34:44.528Z,267
2023-03-21T01:35:16.182Z,267
2023-03-21T01:35:53.465Z,267
2023-03-21T01:36:22.356Z,268
2023-03-21T01:36:52.565Z,267
2023-03-21T01:37:23.909Z,268
2023-03-21T01:37:57.037Z,267
2023-03-21T01:38:27.834Z,268
2023-03-21T01:39:00.741Z,267
2023-03-21T01:39:32.025Z,267
2023-03-21T01:40:04.750Z,267
2023-03-21T01:40:35.908Z,267
2023-03-21T01:41:17.072Z,267
2023-03-21T01:41:43.362Z,267
2023-03-21T01:42:12.747Z,267
2023-03-21T01:42:43.923Z,267
2023-03-21T01:43:16.726Z,267
2023-03-21T01:43:47.867Z,267
2023-03-21T01:44:20.705Z,267
2023-03-21T01:44:52.014Z,267
2023-03-21T01:45:25.486Z,267
2023-03-21T01:45:56.020Z,267
2023-03-21T01:46:32.267Z,267
2023-03-21T01:47:11.641Z,267
2023-03-21T01:47:34.948Z,267
2023-03-21T01:48:03.862Z,267
2023-03-21T01:48:36.974Z,267
2023-03-21T01:49:07.916Z,267
2023-03-21T01:49:40.709Z,267
2023-03-21T01:50:12.386Z,267
2023-03-21T01:50:44.727Z,267
2023-03-21T01:51:15.953Z,267
2023-03-21T01:51:48.706Z,267
2023-03-21T01:52:33.458Z,267
2023-03-21T01:52:52.771Z,267
2023-03-21T01:53:23.793Z,267
2023-03-21T01:53:56.694Z,267
2023-03-21T01:54:27.779Z,267
2023-03-21T01:55:00.757Z,267
2023-03-21T01:55:31.816Z,267
2023-03-21T01:56:04.961Z,267
2023-03-21T01:56:35.821Z,267
2023-03-21T01:57:08.685Z,267
2023-03-21T01:57:45.394Z,267
2023-03-21T01:58:12.745Z,267
2023-03-21T01:58:43.806Z,166
2023-03-21T01:59:00.035Z,166
2023-03-21T01:59:31.896Z,166
2023-03-21T02:00:05.376Z,166
2023-03-21T02:00:36.254Z,166
2023-03-21T02:01:07.893Z,166
2023-03-21T02:01:40.599Z,166
2023-03-21T02:02:12.022Z,166
2023-03-21T02:02:46.830Z,166
2023-03-21T02:03:26.172Z,166
2023-03-21T02:03:52.332Z,166
2023-03-21T02:04:20.053Z,166
2023-03-21T02:04:52.604Z,166
2023-03-21T02:05:24.174Z,166
2023-03-21T02:05:56.688Z,169
2023-03-21T02:06:27.777Z,170
2023-03-21T02:07:00.734Z,169
2023-03-21T02:07:31.950Z,170
2023-03-21T02:08:04.608Z,170
2023-03-21T02:08:39.667Z,170
2023-03-21T02:09:08.469Z,170
2023-03-21T02:09:39.939Z,170
2023-03-21T02:10:13.740Z,170
2023-03-21T02:10:43.957Z,170
2023-03-21T02:11:16.797Z,170
2023-03-21T02:11:47.966Z,170
2023-03-21T02:12:20.730Z,170
2023-03-21T02:12:51.908Z,170
2023-03-21T02:13:24.713Z,170
2023-03-21T02:14:05.889Z,170
2023-03-21T02:14:29.742Z,169
2023-03-21T02:14:59.930Z,170
2023-03-21T02:15:34.153Z,169
2023-03-21T02:16:03.822Z,170
2023-03-21T02:16:36.750Z,170
2023-03-21T02:17:07.951Z,170
2023-03-21T02:17:40.540Z,170
2023-03-21T02:18:11.913Z,170
2023-03-21T02:18:28.098Z,167
2023-03-21T02:18:59.850Z,167
2023-03-21T02:19:37.319Z,169
2023-03-21T02:20:04.242Z,173
2023-03-21T02:20:35.822Z,173
2023-03-21T02:21:08.698Z,173
2023-03-21T02:21:39.940Z,177
2023-03-21T02:22:12.753Z,172
2023-03-21T02:22:43.852Z,172
2023-03-21T02:23:19.606Z,172
2023-03-21T02:23:47.964Z,172
2023-03-21T02:24:21.422Z,161
2023-03-21T02:24:59.665Z,176
2023-03-21T02:25:24.970Z,168
2023-03-21T02:25:55.829Z,168
2023-03-21T02:26:41.216Z,168
2023-03-21T02:27:04.608Z,168
2023-03-21T02:27:32.000Z,168
2023-03-21T02:28:03.880Z,166
2023-03-21T02:28:35.833Z,168
2023-03-21T02:29:07.942Z,168
2023-03-21T02:29:39.975Z,181
2023-03-21T02:30:20.173Z,172
2023-03-21T02:30:51.744Z,172
2023-03-21T02:31:16.722Z,172
2023-03-21T02:31:47.916Z,171
2023-03-21T02:32:34.970Z,171
2023-03-21T02:32:52.091Z,171
2023-03-21T02:33:24.618Z,171
2023-03-21T02:33:55.884Z,171
2023-03-21T02:34:28.611Z,159
2023-03-21T02:35:00.783Z,159
2023-03-21T02:35:37.034Z,176
2023-03-21T02:36:13.619Z,163
2023-03-21T02:36:36.728Z,163
2023-03-21T02:37:07.869Z,163
2023-03-21T02:37:42.925Z,163
2023-03-21T02:38:12.048Z,164
2023-03-21T02:38:44.451Z,177
2023-03-21T02:39:16.032Z,177
2023-03-21T02:39:48.725Z,183
2023-03-21T02:40:20.083Z,164
2023-03-21T02:40:53.775Z,164
2023-03-21T02:41:27.428Z,164
2023-03-21T02:41:56.585Z,164
2023-03-21T02:42:27.924Z,163
2023-03-21T02:43:03.067Z,173
2023-03-21T02:43:32.024Z,180
2023-03-21T02:44:04.516Z,180
2023-03-21T02:44:35.859Z,180
2023-03-21T02:45:10.465Z,181
2023-03-21T02:45:40.157Z,181
2023-03-21T02:46:12.603Z,180
2023-03-21T02:46:49.027Z,181
2023-03-21T02:47:16.803Z,177
2023-03-21T02:47:47.934Z,169
2023-03-21T02:48:28.104Z,177
2023-03-21T02:48:52.187Z,177
2023-03-21T02:49:24.837Z,177
2023-03-21T02:49:55.956Z,177
2023-03-21T02:50:28.932Z,177
2023-03-21T02:50:59.891Z,177
2023-03-21T02:51:32.630Z,177
2023-03-21T02:52:14.437Z,177
2023-03-21T02:52:39.577Z,177
2023-03-21T02:53:08.000Z,177
2023-03-21T02:53:40.552Z,177
2023-03-21T02:54:48.449Z,194
2023-03-21T02:55:16.169Z,154
2023-03-21T02:55:48.674Z,154
2023-03-21T02:56:19.933Z,218
2023-03-21T02:56:52.626Z,218
2023-03-21T02:57:25.502Z,218
2023-03-21T02:58:01.454Z,217
2023-03-21T02:58:27.901Z,217
2023-03-21T02:59:02.427Z,217
2023-03-21T02:59:32.829Z,217
2023-03-21T03:00:15.841Z,217
2023-03-21T03:00:36.486Z,217
2023-03-21T03:01:08.566Z,217
2023-03-21T03:01:39.941Z,217
2023-03-21T03:02:12.810Z,217
2023-03-21T03:02:43.836Z,217
2023-03-21T03:03:27.878Z,217
2023-03-21T03:03:47.903Z,217
2023-03-21T03:04:20.653Z,217
2023-03-21T03:04:51.861Z,217
2023-03-21T03:05:24.885Z,217
2023-03-21T03:05:55.851Z,217
2023-03-21T03:06:28.547Z,217
2023-03-21T03:06:59.849Z,217
2023-03-21T03:07:33.765Z,217
2023-03-21T03:08:03.774Z,217
2023-03-21T03:08:43.082Z,217
2023-03-21T03:09:08.016Z,217
2023-03-21T03:09:40.845Z,217
2023-03-21T03:10:12.081Z,174
2023-03-21T03:10:44.702Z,167
2023-03-21T03:11:16.061Z,167
2023-03-21T03:11:48.508Z,167
2023-03-21T03:12:19.982Z,167
2023-03-21T03:12:52.956Z,175
2023-03-21T03:13:23.714Z,175
2023-03-21T03:14:15.627Z,175
2023-03-21T03:14:44.357Z,175
2023-03-21T03:15:03.173Z,175
2023-03-21T03:15:33.025Z,175
2023-03-21T03:16:03.913Z,175
2023-03-21T03:16:36.053Z,175
2023-03-21T03:17:07.807Z,168
2023-03-21T03:17:40.647Z,168
2023-03-21T03:18:11.931Z,167
2023-03-21T03:18:45.543Z,176
2023-03-21T03:19:15.724Z,176
2023-03-21T03:19:50.552Z,176
2023-03-21T03:20:20.220Z,176
2023-03-21T03:20:52.543Z,176
2023-03-21T03:21:23.913Z,176
2023-03-21T03:21:56.774Z,176
2023-03-21T03:22:28.013Z,176
2023-03-21T03:23:00.859Z,176
2023-03-21T03:23:32.216Z,176
2023-03-21T03:24:05.001Z,182
2023-03-21T03:24:36.000Z,182
2023-03-21T03:25:19.785Z,184
2023-03-21T03:25:43.187Z,184
2023-03-21T03:26:12.688Z,187
2023-03-21T03:26:43.923Z,187
2023-03-21T03:27:18.830Z,187
2023-03-21T03:27:48.113Z,191
2023-03-21T03:28:20.608Z,191
2023-03-21T03:28:51.879Z,191
2023-03-21T03:29:24.646Z,186
2023-03-21T03:29:56.098Z,183
2023-03-21T03:30:41.146Z,183
2023-03-21T03:31:09.082Z,183
2023-03-21T03:31:33.824Z,183
2023-03-21T03:32:03.972Z,183
2023-03-21T03:32:36.877Z,186
2023-03-21T03:33:07.951Z,186
2023-03-21T03:33:40.831Z,186
2023-03-21T03:34:11.775Z,186
2023-03-21T03:34:44.686Z,186
2023-03-21T03:35:16.226Z,186
2023-03-21T03:35:55.915Z,225
2023-03-21T03:36:31.111Z,225
2023-03-21T03:36:53.937Z,225
2023-03-21T03:37:24.060Z,225
2023-03-21T03:37:56.874Z,225
2023-03-21T03:38:27.932Z,225
2023-03-21T03:39:00.707Z,225
2023-03-21T03:39:31.938Z,225
2023-03-21T03:40:05.677Z,225
2023-03-21T03:40:36.076Z,225
2023-03-21T03:41:08.790Z,225
2023-03-21T03:42:04.331Z,225
2023-03-21T03:42:25.465Z,225
2023-03-21T03:42:43.958Z,225
2023-03-21T03:43:16.707Z,225
2023-03-21T03:43:47.816Z,225
2023-03-21T03:44:22.843Z,223
2023-03-21T03:44:51.989Z,223
2023-03-21T03:45:25.853Z,223
2023-03-21T03:45:56.008Z,223
2023-03-21T03:46:28.900Z,223
2023-03-21T03:46:59.848Z,229
2023-03-21T03:47:37.830Z,229
2023-03-21T03:48:03.883Z,229
2023-03-21T03:48:36.967Z,230
2023-03-21T03:49:07.828Z,230
2023-03-21T03:49:40.880Z,230
2023-03-21T03:50:12.156Z,230
2023-03-21T03:50:45.696Z,228
2023-03-21T03:51:15.910Z,230
2023-03-21T03:51:48.783Z,230
2023-03-21T03:52:19.782Z,228
2023-03-21T03:52:56.911Z,228
2023-03-21T03:53:23.930Z,230
2023-03-21T03:53:56.882Z,230
2023-03-21T03:54:27.821Z,230
2023-03-21T03:55:01.391Z,230
2023-03-21T03:55:32.082Z,230
2023-03-21T03:56:04.689Z,230
2023-03-21T03:56:35.845Z,230
2023-03-21T03:57:08.977Z,230
2023-03-21T03:57:39.934Z,230
2023-03-21T03:58:21.700Z,230
2023-03-21T03:58:45.956Z,230
2023-03-21T03:59:16.862Z,230
2023-03-21T03:59:47.849Z,230
2023-03-21T04:00:21.981Z,230
2023-03-21T04:00:52.081Z,230
2023-03-21T04:01:26.543Z,230
2023-03-21T04:01:56.014Z,230
2023-03-21T04:02:28.931Z,230
2023-03-21T04:03:00.148Z,230
2023-03-21T04:03:46.055Z,230
2023-03-21T04:04:12.896Z,230
2023-03-21T04:04:36.694Z,230
2023-03-21T04:05:08.195Z,230
2023-03-21T04:05:40.587Z,230
2023-03-21T04:06:11.926Z,230
2023-03-21T04:06:44.615Z,230
2023-03-21T04:07:15.785Z,230
2023-03-21T04:07:48.752Z,230
2023-03-21T04:08:19.966Z,230
2023-03-21T04:08:52.792Z,230
2023-03-21T04:09:34.207Z,230
2023-03-21T04:09:56.760Z,230
2023-03-21T04:10:28.344Z,230
2023-03-21T04:11:00.750Z,230
2023-03-21T04:11:31.933Z,230
2023-03-21T04:12:04.795Z,230
2023-03-21T04:12:36.038Z,230
2023-03-21T04:13:08.558Z,230
2023-03-21T04:13:39.949Z,230
2023-03-21T04:14:12.679Z,230
2023-03-21T04:14:45.989Z,230
2023-03-21T04:15:17.647Z,230
2023-03-21T04:15:48.108Z,230
2023-03-21T04:16:20.938Z,230
2023-03-21T04:16:51.821Z,230
2023-03-21T04:17:24.746Z,230
2023-03-21T04:17:56.041Z,230
2023-03-21T04:18:28.680Z,230
2023-03-21T04:18:59.852Z,230
2023-03-21T04:19:33.615Z,230
2023-03-21T04:20:11.320Z,230
2023-03-21T04:20:38.640Z,230
2023-03-21T04:21:07.884Z,230
2023-03-21T04:21:43.287Z,230
2023-03-21T04:22:11.978Z,230
2023-03-21T04:22:45.575Z,230
2023-03-21T04:23:15.958Z,230
2023-03-21T04:23:48.560Z,230
2023-03-21T04:24:19.787Z,230
2023-03-21T04:24:52.705Z,230
2023-03-21T04:25:32.832Z,230
2023-03-21T04:25:57.384Z,230
2023-03-21T04:26:27.914Z,230
2023-03-21T04:27:00.881Z,230
2023-03-21T04:27:31.826Z,230
2023-03-21T04:28:04.796Z,230
2023-03-21T04:28:35.948Z,230
2023-03-21T04:29:08.675Z,230
2023-03-21T04:29:39.931Z,230
2023-03-21T04:30:15.257Z,230
2023-03-21T04:30:54.991Z,230
2023-03-21T04:31:25.010Z,230
2023-03-21T04:31:48.026Z,230
2023-03-21T04:32:20.765Z,230
2023-03-21T04:32:51.954Z,230
2023-03-21T04:33:24.634Z,230
2023-03-21T04:33:56.090Z,230
2023-03-21T04:34:28.885Z,230
2023-03-21T04:34:59.828Z,230
2023-03-21T04:35:33.403Z,230
2023-03-21T04:36:04.018Z,230
2023-03-21T04:36:36.847Z,230
2023-03-21T04:37:07.987Z,230
2023-03-21T04:37:40.822Z,230
2023-03-21T04:38:11.785Z,230
2023-03-21T04:38:44.656Z,230
2023-03-21T04:39:15.964Z,230
2023-03-21T04:39:48.800Z,230
2023-03-21T04:40:20.134Z,230
2023-03-21T04:40:53.006Z,230
2023-03-21T04:41:23.976Z,230
2023-03-21T04:41:56.613Z,230
2023-03-21T04:42:27.942Z,230
2023-03-21T04:43:00.918Z,230
2023-03-21T04:43:32.170Z,230
2023-03-21T04:44:04.743Z,230
2023-03-21T04:44:35.947Z,230
2023-03-21T04:45:09.842Z,230
2023-03-21T04:45:40.121Z,230
2023-03-21T04:46:12.833Z,230
2023-03-21T04:46:43.923Z,230
2023-03-21T04:47:17.121Z,230
2023-03-21T04:47:48.098Z,230
2023-03-21T04:48:22.048Z,230
2023-03-21T04:48:52.352Z,230
2023-03-21T04:49:24.980Z,230
2023-03-21T04:49:56.023Z,229
2023-03-21T04:50:29.287Z,229
2023-03-21T04:50:59.965Z,229
2023-03-21T04:51:32.989Z,229
2023-03-21T04:52:04.203Z,229
2023-03-21T04:52:38.468Z,229
2023-03-21T04:53:07.938Z,229
2023-03-21T04:53:40.594Z,229
2023-03-21T04:54:12.066Z,229
2023-03-21T04:54:44.690Z,229
2023-03-21T04:55:16.257Z,212
2023-03-21T04:55:52.443Z,212
2023-03-21T04:56:19.836Z,212
2023-03-21T04:56:52.804Z,212
2023-03-21T04:57:24.060Z,212
2023-03-21T04:57:56.952Z,212
2023-03-21T04:58:27.892Z,211
2023-03-21T04:59:00.782Z,211
2023-03-21T04:59:32.031Z,211
2023-03-21T05:00:06.028Z,211
2023-03-21T05:00:35.937Z,211
2023-03-21T05:01:08.901Z,210
2023-03-21T05:01:40.005Z,210
2023-03-21T05:02:12.870Z,210
2023-03-21T05:02:43.924Z,210
2023-03-21T05:03:16.948Z,210
2023-03-21T05:03:47.912Z,210
2023-03-21T05:04:20.682Z,210
2023-03-21T05:04:51.966Z,210
2023-03-21T05:05:24.875Z,210
2023-03-21T05:05:55.883Z,210
2023-03-21T05:06:28.855Z,210
2023-03-21T05:06:59.950Z,210
2023-03-21T05:07:32.632Z,210
2023-03-21T05:08:03.888Z,210
2023-03-21T05:08:36.804Z,210
2023-03-21T05:09:08.029Z,210
2023-03-21T05:09:40.683Z,210
2023-03-21T05:10:12.211Z,210
2023-03-21T05:10:44.940Z,210
2023-03-21T05:11:15.864Z,210
2023-03-21T05:11:48.703Z,210
2023-03-21T05:12:20.032Z,210
2023-03-21T05:12:52.713Z,210
2023-03-21T05:13:23.844Z,210
2023-03-21T05:13:56.817Z,210
2023-03-21T05:14:28.021Z,210
2023-03-21T05:15:02.209Z,210
2023-03-21T05:15:32.096Z,210
2023-03-21T05:16:05.066Z,210
2023-03-21T05:16:35.869Z,211
2023-03-21T05:17:09.755Z,211
2023-03-21T05:17:39.953Z,211
2023-03-21T05:18:12.833Z,211
2023-03-21T05:18:43.963Z,211
2023-03-21T05:19:16.923Z,211
2023-03-21T05:19:48.125Z,211
2023-03-21T05:20:20.933Z,211
2023-03-21T05:20:52.225Z,211
2023-03-21T05:21:24.977Z,211
2023-03-21T05:21:56.333Z,211
2023-03-21T05:22:29.160Z,211
2023-03-21T05:23:00.621Z,211
2023-03-21T05:23:33.367Z,211
2023-03-21T05:24:04.101Z,211
2023-03-21T05:24:36.990Z,211
2023-03-21T05:25:08.514Z,211
2023-03-21T05:25:41.205Z,211
2023-03-21T05:26:12.109Z,211
2023-03-21T05:26:44.910Z,211
2023-03-21T05:27:16.198Z,211
2023-03-21T05:27:48.930Z,211
2023-03-21T05:28:20.123Z,211
2023-03-21T05:28:53.010Z,211
2023-03-21T05:29:24.213Z,211
2023-03-21T05:29:56.876Z,211
2023-03-21T05:30:29.270Z,211
2023-03-21T05:31:01.018Z,211
2023-03-21T05:31:32.125Z,211
2023-03-21T05:32:05.280Z,211
2023-03-21T05:32:36.163Z,207
2023-03-21T05:33:08.961Z,207
2023-03-21T05:33:40.224Z,207
2023-03-21T05:34:12.932Z,224
2023-03-21T05:34:44.195Z,215
2023-03-21T05:35:17.136Z,215
2023-03-21T05:35:48.202Z,220
2023-03-21T05:36:21.110Z,220
2023-03-21T05:36:52.321Z,220
2023-03-21T05:37:27.969Z,220
2023-03-21T05:37:56.161Z,220
2023-03-21T05:38:29.940Z,199
2023-03-21T05:39:00.051Z,207
2023-03-21T05:39:32.844Z,207
2023-03-21T05:40:04.466Z,207
2023-03-21T05:40:37.030Z,207
2023-03-21T05:41:08.078Z,207
2023-03-21T05:41:41.025Z,207
2023-03-21T05:42:12.197Z,207
2023-03-21T05:42:45.028Z,221
2023-03-21T05:43:16.171Z,224
2023-03-21T05:43:48.997Z,224
2023-03-21T05:44:20.191Z,224
2023-03-21T05:44:52.933Z,220
2023-03-21T05:45:25.201Z,220
2023-03-21T05:45:57.178Z,224
2023-03-21T05:46:28.135Z,224
2023-03-21T05:47:01.056Z,229
2023-03-21T05:47:32.177Z,232
2023-03-21T05:48:06.109Z,232
2023-03-21T05:48:36.143Z,229
2023-03-21T05:49:08.970Z,229
2023-03-21T05:49:40.359Z,206
2023-03-21T05:50:13.328Z,212
2023-03-21T05:50:44.121Z,226
2023-03-21T05:51:17.134Z,226
2023-03-21T05:51:48.121Z,232
2023-03-21T05:52:26.424Z,232
2023-03-21T05:52:52.242Z,232
2023-03-21T05:53:24.263Z,219
2023-03-21T05:53:57.274Z,211
2023-03-21T05:54:28.162Z,209
2023-03-21T05:55:01.585Z,212
2023-03-21T05:55:32.343Z,212
2023-03-21T05:56:04.803Z,212
2023-03-21T05:56:36.120Z,212
2023-03-21T05:57:09.082Z,212
2023-03-21T05:57:40.123Z,212
2023-03-21T05:58:12.893Z,212
2023-03-21T05:58:44.267Z,212
2023-03-21T05:59:18.796Z,238
2023-03-21T05:59:48.229Z,238
2023-03-21T06:00:24.232Z,238
2023-03-21T06:00:52.099Z,238
2023-03-21T06:01:24.957Z,239
2023-03-21T06:01:56.160Z,235
2023-03-21T06:02:29.074Z,235
2023-03-21T06:03:00.212Z,235
2023-03-21T06:03:34.001Z,179
2023-03-21T06:04:04.156Z,199
2023-03-21T06:04:37.297Z,178
2023-03-21T06:05:08.397Z,236
2023-03-21T06:05:41.247Z,172
2023-03-21T06:06:12.061Z,236
2023-03-21T06:06:44.836Z,235
2023-03-21T06:07:16.253Z,235
2023-03-21T06:07:49.196Z,235
2023-03-21T06:08:20.077Z,235
2023-03-21T06:08:52.924Z,226
2023-03-21T06:09:24.191Z,226
2023-03-21T06:09:56.850Z,228
2023-03-21T06:10:28.402Z,228
2023-03-21T06:11:01.138Z,228
2023-03-21T06:11:32.044Z,228
2023-03-21T06:12:05.170Z,235
2023-03-21T06:12:36.166Z,237
2023-03-21T06:13:09.195Z,237
2023-03-21T06:13:40.172Z,237
2023-03-21T06:14:13.054Z,226
2023-03-21T06:14:44.234Z,235
2023-03-21T06:15:17.913Z,235
2023-03-21T06:15:48.447Z,235
2023-03-21T06:16:22.105Z,235
2023-03-21T06:16:52.300Z,235
2023-03-21T06:17:24.990Z,235
2023-03-21T06:17:56.260Z,235
2023-03-21T06:18:29.061Z,235
2023-03-21T06:19:00.351Z,237
2023-03-21T06:19:32.950Z,237
2023-03-21T06:20:04.481Z,237
2023-03-21T06:20:37.318Z,237
2023-03-21T06:21:08.266Z,237
2023-03-21T06:21:40.997Z,237
2023-03-21T06:22:12.294Z,242
2023-03-21T06:22:45.051Z,207
2023-03-21T06:23:16.204Z,227
2023-03-21T06:23:49.179Z,245
2023-03-21T06:24:20.296Z,207
2023-03-21T06:24:52.853Z,217
2023-03-21T06:25:24.507Z,224
2023-03-21T06:25:57.013Z,224
2023-03-21T06:26:28.117Z,218
2023-03-21T06:27:03.909Z,218
2023-03-21T06:27:32.357Z,218
2023-03-21T06:28:05.115Z,218
2023-03-21T06:28:36.152Z,218
2023-03-21T06:29:09.039Z,200
2023-03-21T06:29:40.220Z,208
2023-03-21T06:30:13.647Z,214
2023-03-21T06:30:44.268Z,218
2023-03-21T06:31:17.249Z,208
2023-03-21T06:31:48.335Z,208
2023-03-21T06:32:20.987Z,208
2023-03-21T06:32:52.240Z,220
2023-03-21T06:33:25.195Z,227
2023-03-21T06:33:56.126Z,227
2023-03-21T06:34:29.089Z,220
2023-03-21T06:35:00.633Z,220
2023-03-21T06:35:33.365Z,227
2023-03-21T06:36:04.240Z,208
2023-03-21T06:36:37.388Z,208
2023-03-21T06:37:08.230Z,198
2023-03-21T06:37:41.040Z,189
2023-03-21T06:38:12.146Z,214
2023-03-21T06:38:44.987Z,214
2023-03-21T06:39:16.212Z,212
2023-03-21T06:39:48.831Z,198
2023-03-21T06:40:20.436Z,198
2023-03-21T06:40:54.010Z,198
2023-03-21T06:41:24.029Z,159
2023-03-21T06:41:57.027Z,159
2023-03-21T06:42:28.225Z,159
2023-03-21T06:43:01.195Z,159
2023-03-21T06:43:32.218Z,158
2023-03-21T06:44:05.160Z,158
2023-03-21T06:44:36.276Z,156
2023-03-21T06:45:10.160Z,158
2023-03-21T06:45:40.378Z,158
2023-03-21T06:46:12.983Z,158
2023-03-21T06:46:44.168Z,158
2023-03-21T06:47:16.918Z,158
2023-03-21T06:47:48.379Z,158
2023-03-21T06:48:21.093Z,158
2023-03-21T06:48:52.063Z,158
2023-03-21T06:49:24.923Z,158
2023-03-21T06:49:56.326Z,200
2023-03-21T06:50:29.257Z,154
2023-03-21T06:51:00.172Z,154
2023-03-21T06:51:32.901Z,178
2023-03-21T06:52:04.044Z,154
2023-03-21T06:52:39.384Z,154
2023-03-21T06:53:08.156Z,154
2023-03-21T06:53:40.945Z,154
2023-03-21T06:54:12.132Z,154
2023-03-21T06:54:44.905Z,154
2023-03-21T06:55:16.687Z,154
2023-03-21T06:55:49.088Z,154
2023-03-21T06:56:20.105Z,154
2023-03-21T06:56:53.056Z,154
2023-03-21T06:57:24.272Z,245
2023-03-21T06:57:57.019Z,245
2023-03-21T06:58:28.124Z,245
2023-03-21T06:59:02.048Z,245
2023-03-21T06:59:32.105Z,245
2023-03-21T07:00:06.387Z,245
2023-03-21T07:00:36.634Z,245
2023-03-21T07:01:09.009Z,166
2023-03-21T07:01:40.145Z,161
2023-03-21T07:02:13.043Z,166
2023-03-21T07:02:44.287Z,166
2023-03-21T07:03:17.022Z,251
2023-03-21T07:03:48.284Z,251
2023-03-21T07:04:21.038Z,250
2023-03-21T07:04:52.108Z,250
2023-03-21T07:05:25.592Z,250
2023-03-21T07:05:56.633Z,250
2023-03-21T07:06:28.820Z,250
2023-03-21T07:07:00.227Z,166
2023-03-21T07:07:33.099Z,166
2023-03-21T07:08:04.171Z,166
2023-03-21T07:08:36.764Z,166
2023-03-21T07:09:08.185Z,160
2023-03-21T07:09:41.076Z,160
2023-03-21T07:10:12.430Z,160
2023-03-21T07:10:45.468Z,254
2023-03-21T07:11:16.197Z,254
2023-03-21T07:11:48.892Z,254
2023-03-21T07:12:20.207Z,154
2023-03-21T07:12:53.128Z,154
2023-03-21T07:13:24.299Z,196
2023-03-21T07:13:56.948Z,185
2023-03-21T07:14:28.211Z,185
2023-03-21T07:15:03.789Z,186
2023-03-21T07:15:32.198Z,186
2023-03-21T07:16:05.053Z,185
2023-03-21T07:16:36.262Z,149
2023-03-21T07:17:09.138Z,149
2023-03-21T07:17:40.134Z,149
2023-03-21T07:18:12.910Z,190
2023-03-21T07:18:44.204Z,149
2023-03-21T07:19:16.793Z,182
2023-03-21T07:19:48.141Z,222
2023-03-21T07:20:21.478Z,191
2023-03-21T07:20:52.139Z,191